createdAt,value
2023-06-03T00:00:27.794Z,99130.13
2023-06-03T00:03:14.860Z,99132.25
2023-06-03T00:05:42.761Z,99135.25
2023-06-03T00:08:09.598Z,99129.69
2023-06-03T00:10:36.662Z,99134.84
2023-06-03T00:13:03.433Z,99141.03
2023-06-03T00:15:30.568Z,99137.88
2023-06-03T00:17:57.471Z,99140.59
2023-06-03T00:20:26.398Z,99140.59
2023-06-03T00:22:53.390Z,99138.50
2023-06-03T00:25:20.616Z,99138.19
2023-06-03T00:27:50.395Z,99140.22
2023-06-03T00:30:17.745Z,99138.91
2023-06-03T00:32:44.716Z,99135.63
2023-06-03T00:35:11.769Z,99131.78
2023-06-03T00:37:38.554Z,99145.19
2023-06-03T00:40:06.317Z,99139.47
2023-06-03T00:42:33.369Z,99147.50
2023-06-03T00:45:00.736Z,99147.06
2023-06-03T00:47:27.556Z,99151.22
2023-06-03T00:49:54.704Z,99158.09
2023-06-03T00:52:21.576Z,99150.66
2023-06-03T00:54:50.315Z,99146.66
2023-06-03T00:57:17.432Z,99155.09
2023-06-03T00:59:44.494Z,99157.78
2023-06-03T01:02:13.830Z,99156.63
2023-06-03T01:04:43.471Z,99159.50
2023-06-03T01:07:14.254Z,99159.50
2023-06-03T01:10:03.660Z,99157.06
2023-06-03T01:12:58.328Z,99163.47
2023-06-03T01:15:29.245Z,99165.34
2023-06-03T01:17:58.691Z,99162.91
2023-06-03T01:20:29.529Z,99162.59
2023-06-03T01:23:12.379Z,99167.06
2023-06-03T01:25:42.848Z,99167.34
2023-06-03T01:28:09.971Z,99169.75
2023-06-03T01:30:37.095Z,99172.88
2023-06-03T01:33:03.980Z,99173.72
2023-06-03T01:35:31.323Z,99165.84
2023-06-03T01:37:58.078Z,99166.31
2023-06-03T01:40:25.229Z,99169.28
2023-06-03T01:42:52.024Z,99165.41
2023-06-03T01:45:19.097Z,99172.75
2023-06-03T01:47:45.949Z,99167.44
2023-06-03T01:50:13.046Z,99169.72
2023-06-03T01:52:39.869Z,99166.09
2023-06-03T01:55:07.878Z,99173.47
2023-06-03T01:57:34.686Z,99167.72
2023-06-03T02:00:02.095Z,99171.03
2023-06-03T02:02:29.026Z,99169.59
2023-06-03T02:04:57.582Z,99174.84
2023-06-03T02:07:27.180Z,99174.53
2023-06-03T02:09:54.493Z,99176.25
2023-06-03T02:12:21.374Z,99178.06
2023-06-03T02:14:48.631Z,99172.69
2023-06-03T02:17:16.696Z,99178.91
2023-06-03T02:19:43.789Z,99182.69
2023-06-03T02:22:12.011Z,99178.06
2023-06-03T02:24:39.381Z,99186.09
2023-06-03T02:27:07.865Z,99186.22
2023-06-03T02:29:35.178Z,99184.75
2023-06-03T02:32:02.308Z,99193.06
2023-06-03T02:34:29.562Z,99194.31
2023-06-03T02:36:56.513Z,99201.41
2023-06-03T02:39:23.665Z,99198.94
2023-06-03T02:41:50.558Z,99196.03
2023-06-03T02:44:17.991Z,99196.69
2023-06-03T02:46:45.239Z,99205.16
2023-06-03T02:49:13.799Z,99201.97
2023-06-03T02:51:43.512Z,99208.50
2023-06-03T02:54:10.803Z,99207.28
2023-06-03T02:56:37.573Z,99205.88
2023-06-03T02:59:04.998Z,99199.09
2023-06-03T03:01:32.014Z,99198.91
2023-06-03T03:03:59.258Z,99210.84
2023-06-03T03:06:26.270Z,99209.41
2023-06-03T03:08:56.499Z,99204.84
2023-06-03T03:11:25.444Z,99210.97
2023-06-03T03:13:52.618Z,99204.50
2023-06-03T03:16:19.475Z,99213.59
2023-06-03T03:18:46.869Z,99217.66
2023-06-03T03:21:14.333Z,99217.41
2023-06-03T03:23:41.772Z,99220.16
2023-06-03T03:26:09.865Z,99218.91
2023-06-03T03:28:37.248Z,99219.03
2023-06-03T03:31:06.193Z,99226.25
2023-06-03T03:33:33.831Z,99225.91
2023-06-03T03:36:09.392Z,99240.19
2023-06-03T03:38:37.613Z,99231.47
2023-06-03T03:41:06.522Z,99230.53
2023-06-03T03:43:34.110Z,99228.84
2023-06-03T03:46:01.082Z,99238.31
2023-06-03T03:48:29.875Z,99231.13
2023-06-03T03:50:56.868Z,99235.72
2023-06-03T03:53:30.196Z,99244.44
2023-06-03T03:55:58.380Z,99244.84
2023-06-03T03:58:29.992Z,99245.31
2023-06-03T04:01:02.146Z,99245.03
2023-06-03T04:03:31.505Z,99242.06
2023-06-03T04:05:58.604Z,99249.22
2023-06-03T04:08:47.348Z,99245.31
2023-06-03T04:11:21.281Z,99251.81
2023-06-03T04:13:48.548Z,99250.66
2023-06-03T04:16:35.904Z,99250.03
2023-06-03T04:19:04.296Z,99255.44
2023-06-03T04:21:31.387Z,99252.69
2023-06-03T04:23:58.550Z,99254.72
2023-06-03T04:26:25.403Z,99260.88
2023-06-03T04:28:53.628Z,99254.06
2023-06-03T04:31:20.476Z,99258.91
2023-06-03T04:33:47.563Z,99261.47
2023-06-03T04:36:14.454Z,99269.19
2023-06-03T04:38:42.488Z,99265.09
2023-06-03T04:41:11.523Z,99271.38
2023-06-03T04:43:39.616Z,99264.09
2023-06-03T04:46:11.301Z,99271.38
2023-06-03T04:48:42.526Z,99272.69
2023-06-03T04:51:10.172Z,99276.75
2023-06-03T04:53:40.065Z,99267.31
2023-06-03T04:56:09.867Z,99268.78
2023-06-03T04:58:38.141Z,99268.44
2023-06-03T05:01:06.347Z,99269.34
2023-06-03T05:03:36.407Z,99271.75
2023-06-03T05:06:05.376Z,99269.78
2023-06-03T05:08:32.512Z,99272.69
2023-06-03T05:10:59.328Z,99269.25
2023-06-03T05:13:26.761Z,99272.41
2023-06-03T05:15:53.574Z,99270.44
2023-06-03T05:18:20.755Z,99269.88
2023-06-03T05:20:47.531Z,99266.63
2023-06-03T05:23:14.648Z,99269.91
2023-06-03T05:25:41.439Z,99271.34
2023-06-03T05:28:08.708Z,99267.94
2023-06-03T05:30:35.498Z,99266.38
2023-06-03T05:33:02.645Z,99274.81
2023-06-03T05:35:29.490Z,99277.97
2023-06-03T05:37:56.696Z,99275.56
2023-06-03T05:40:23.586Z,99274.28
2023-06-03T05:42:50.739Z,99271.06
2023-06-03T05:45:17.586Z,99267.03
2023-06-03T05:47:44.714Z,99271.78
2023-06-03T05:50:11.588Z,99280.06
2023-06-03T05:52:38.677Z,99277.47
2023-06-03T05:55:06.022Z,99277.19
2023-06-03T05:57:34.533Z,99281.94
2023-06-03T06:00:01.512Z,99282.22
2023-06-03T06:02:28.715Z,99280.06
2023-06-03T06:04:55.625Z,99291.09
2023-06-03T06:07:22.747Z,99286.06
2023-06-03T06:09:49.534Z,99287.19
2023-06-03T06:12:18.083Z,99283.19
2023-06-03T06:14:44.997Z,99290.59
2023-06-03T06:17:13.144Z,99284.44
2023-06-03T06:19:40.172Z,99290.72
2023-06-03T06:22:07.277Z,99293.75
2023-06-03T06:24:36.379Z,99297.31
2023-06-03T06:27:05.549Z,99291.41
2023-06-03T06:29:32.960Z,99290.69
2023-06-03T06:32:01.238Z,99295.22
2023-06-03T06:34:32.858Z,99296.66
2023-06-03T06:37:00.546Z,99293.31
2023-06-03T06:39:48.826Z,99290.41
2023-06-03T06:42:32.764Z,99301.56
2023-06-03T06:45:05.236Z,99292.94
2023-06-03T06:47:37.114Z,99295.75
2023-06-03T06:50:06.171Z,99295.88
2023-06-03T06:52:33.285Z,99295.22
2023-06-03T06:55:00.418Z,99298.78
2023-06-03T06:57:29.520Z,99301.59
2023-06-03T06:59:56.442Z,99296.09
2023-06-03T07:02:23.778Z,99298.66
2023-06-03T07:04:53.477Z,99303.19
2023-06-03T07:07:20.604Z,99307.72
2023-06-03T07:09:47.399Z,99307.09
2023-06-03T07:12:14.552Z,99310.06
2023-06-03T07:14:41.386Z,99303.56
2023-06-03T07:17:08.604Z,99309.31
2023-06-03T07:19:38.075Z,99315.00
2023-06-03T07:22:08.587Z,99311.06
2023-06-03T07:24:36.496Z,99318.44
2023-06-03T07:27:07.521Z,99311.88
2023-06-03T07:29:39.280Z,99309.00
2023-06-03T07:32:07.672Z,99310.75
2023-06-03T07:34:34.889Z,99319.84
2023-06-03T07:37:02.962Z,99317.31
2023-06-03T07:39:29.924Z,99321.00
2023-06-03T07:41:57.284Z,99320.31
2023-06-03T07:44:45.465Z,99323.94
2023-06-03T07:47:14.289Z,99327.03
2023-06-03T07:49:41.396Z,99328.00
2023-06-03T07:52:08.568Z,99326.66
2023-06-03T07:54:36.198Z,99323.63
2023-06-03T07:57:03.443Z,99325.84
2023-06-03T07:59:30.276Z,99316.97
2023-06-03T08:02:00.744Z,99325.41
2023-06-03T08:04:32.585Z,99315.69
2023-06-03T08:07:01.663Z,99317.88
2023-06-03T08:09:33.839Z,99336.91
2023-06-03T08:12:02.417Z,99329.41
2023-06-03T08:14:30.996Z,99325.00
2023-06-03T08:16:59.736Z,99323.81
2023-06-03T08:19:26.544Z,99326.03
2023-06-03T08:21:53.798Z,99329.81
2023-06-03T08:24:20.899Z,99328.44
2023-06-03T08:26:48.012Z,99330.66
2023-06-03T08:29:15.054Z,99336.66
2023-06-03T08:31:42.267Z,99324.66
2023-06-03T08:34:09.121Z,99326.56
2023-06-03T08:36:38.115Z,99331.31
2023-06-03T08:39:06.042Z,99324.69
2023-06-03T08:41:38.362Z,99338.00
2023-06-03T08:44:11.087Z,99340.06
2023-06-03T08:46:45.060Z,99337.97
2023-06-03T08:49:12.668Z,99333.31
2023-06-03T08:51:40.350Z,99338.28
2023-06-03T08:54:12.457Z,99334.00
2023-06-03T08:56:41.467Z,99331.25
2023-06-03T08:59:08.270Z,99333.06
2023-06-03T09:01:38.634Z,99327.72
2023-06-03T09:04:05.842Z,99320.16
2023-06-03T09:06:33.270Z,99318.06
2023-06-03T09:09:00.083Z,99324.59
2023-06-03T09:11:27.436Z,99326.28
2023-06-03T09:13:54.496Z,99318.88
2023-06-03T09:16:21.712Z,99326.19
2023-06-03T09:18:50.592Z,99315.16
2023-06-03T09:21:17.720Z,99319.47
2023-06-03T09:23:45.143Z,99327.94
2023-06-03T09:26:12.391Z,99323.78
2023-06-03T09:28:39.258Z,99320.31
2023-06-03T09:31:06.746Z,99324.94
2023-06-03T09:33:33.922Z,99325.06
2023-06-03T09:36:17.142Z,99325.91
2023-06-03T09:38:57.632Z,99314.16
2023-06-03T09:41:28.643Z,99305.31
2023-06-03T09:44:01.161Z,99303.56
2023-06-03T09:46:30.135Z,99307.53
2023-06-03T09:49:32.689Z,99316.81
2023-06-03T09:52:10.910Z,99313.91
2023-06-03T09:54:38.152Z,99306.13
2023-06-03T09:57:12.827Z,99306.41
2023-06-03T09:59:42.361Z,99312.63
2023-06-03T10:02:11.988Z,99311.03
2023-06-03T10:04:43.277Z,99303.88
2023-06-03T10:07:14.802Z,99297.50
2023-06-03T10:09:46.635Z,99301.59
2023-06-03T10:12:28.290Z,99302.22
2023-06-03T10:14:56.520Z,99296.16
2023-06-03T10:17:23.887Z,99293.59
2023-06-03T10:19:50.802Z,99298.44
2023-06-03T10:22:19.906Z,99296.16
2023-06-03T10:24:47.923Z,99293.81
2023-06-03T10:27:19.149Z,99285.94
2023-06-03T10:29:46.072Z,99290.59
2023-06-03T10:32:16.135Z,99290.47
2023-06-03T10:34:46.274Z,99281.13
2023-06-03T10:37:14.731Z,99268.66
2023-06-03T10:39:42.631Z,99276.53
2023-06-03T10:42:11.448Z,99275.25
2023-06-03T10:44:38.253Z,99270.97
2023-06-03T10:47:14.608Z,99271.47
2023-06-03T10:49:55.392Z,99261.06
2023-06-03T10:52:28.586Z,99275.16
2023-06-03T10:55:10.240Z,99269.50
2023-06-03T10:57:46.662Z,99263.78
2023-06-03T11:00:13.676Z,99267.88
2023-06-03T11:03:09.792Z,99260.69
2023-06-03T11:05:36.827Z,99255.00
2023-06-03T11:08:03.998Z,99257.75
2023-06-03T11:10:40.721Z,99258.56
2023-06-03T11:13:08.289Z,99254.16
2023-06-03T11:15:57.857Z,99245.69
2023-06-03T11:18:25.061Z,99251.19
2023-06-03T11:20:51.924Z,99252.53
2023-06-03T11:23:41.727Z,99255.34
2023-06-03T11:26:34.927Z,99248.38
2023-06-03T11:29:06.333Z,99252.22
2023-06-03T11:31:34.303Z,99253.50
2023-06-03T11:34:28.007Z,99253.31
2023-06-03T11:36:56.110Z,99253.53
2023-06-03T11:39:23.521Z,99248.03
2023-06-03T11:42:10.372Z,99252.69
2023-06-03T11:44:41.430Z,99246.81
2023-06-03T11:47:08.408Z,99250.41
2023-06-03T11:49:36.689Z,99249.59
2023-06-03T11:52:03.742Z,99239.66
2023-06-03T11:54:30.995Z,99238.59
2023-06-03T11:57:00.875Z,99236.63
2023-06-03T11:59:33.928Z,99242.78
2023-06-03T12:02:01.640Z,99241.59
2023-06-03T12:04:29.321Z,99237.78
2023-06-03T12:06:56.475Z,99232.28
2023-06-03T12:09:25.068Z,99235.06
2023-06-03T12:11:51.944Z,99238.25
2023-06-03T12:14:28.391Z,99230.16
2023-06-03T12:16:56.309Z,99224.63
2023-06-03T12:19:23.471Z,99225.06
2023-06-03T12:21:58.179Z,99223.34
2023-06-03T12:24:29.614Z,99219.97
2023-06-03T12:26:56.415Z,99216.34
2023-06-03T12:29:24.790Z,99222.31
2023-06-03T12:31:59.126Z,99216.56
2023-06-03T12:34:34.852Z,99207.63
2023-06-03T12:37:06.178Z,99203.56
2023-06-03T12:39:47.521Z,99197.63
2023-06-03T12:42:14.373Z,99202.53
2023-06-03T12:44:51.565Z,99191.06
2023-06-03T12:47:19.389Z,99199.13
2023-06-03T12:50:08.238Z,99197.00
2023-06-03T12:52:37.370Z,99205.75
2023-06-03T12:55:06.792Z,99200.22
2023-06-03T12:57:54.515Z,99189.34
2023-06-03T13:00:22.544Z,99193.56
2023-06-03T13:02:51.201Z,99189.72
2023-06-03T13:05:18.726Z,99190.38
2023-06-03T13:07:45.702Z,99194.22
2023-06-03T13:10:13.497Z,99188.88
2023-06-03T13:12:41.225Z,99191.03
2023-06-03T13:15:08.565Z,99186.31
2023-06-03T13:17:36.511Z,99188.66
2023-06-03T13:20:07.209Z,99181.19
2023-06-03T13:22:35.083Z,99181.19
2023-06-03T13:25:02.329Z,99183.53
2023-06-03T13:27:29.218Z,99166.50
2023-06-03T13:29:56.351Z,99162.84
2023-06-03T13:32:24.972Z,99168.19
2023-06-03T13:34:52.884Z,99169.06
2023-06-03T13:37:19.750Z,99167.75
2023-06-03T13:39:46.859Z,99168.38
2023-06-03T13:42:13.696Z,99175.66
2023-06-03T13:44:40.819Z,99170.09
2023-06-03T13:47:08.491Z,99173.50
2023-06-03T13:49:35.694Z,99167.56
2023-06-03T13:52:02.594Z,99163.94
2023-06-03T13:54:29.756Z,99162.84
2023-06-03T13:56:56.557Z,99166.03
2023-06-03T13:59:24.186Z,99164.13
2023-06-03T14:01:52.237Z,99152.81
2023-06-03T14:04:21.240Z,99156.44
2023-06-03T14:06:49.702Z,99152.63
2023-06-03T14:09:17.320Z,99150.06
2023-06-03T14:11:44.210Z,99150.50
2023-06-03T14:14:11.335Z,99150.69
2023-06-03T14:16:38.347Z,99150.88
2023-06-03T14:19:05.826Z,99142.22
2023-06-03T14:21:32.843Z,99143.06
2023-06-03T14:24:00.108Z,99142.00
2023-06-03T14:26:27.365Z,99143.66
2023-06-03T14:28:54.588Z,99140.69
2023-06-03T14:33:52.021Z,99126.16
2023-06-03T14:36:18.838Z,99120.25
2023-06-03T14:38:45.941Z,99127.28
2023-06-03T14:41:12.794Z,99114.31
2023-06-03T14:43:39.921Z,99111.94
2023-06-03T14:46:06.828Z,99112.38
2023-06-03T14:48:34.014Z,99117.75
2023-06-03T14:51:01.162Z,99116.22
2023-06-03T14:53:29.068Z,99119.00
2023-06-03T14:55:56.132Z,99117.97
2023-06-03T14:58:24.973Z,99108.16
2023-06-03T15:00:51.886Z,99109.44
2023-06-03T15:03:21.446Z,99103.47
2023-06-03T15:05:48.501Z,99106.25
2023-06-03T15:08:15.657Z,99100.28
2023-06-03T15:10:42.522Z,99089.84
2023-06-03T15:13:09.684Z,99100.34
2023-06-03T15:15:36.781Z,99101.59
2023-06-03T15:18:04.156Z,99101.00
2023-06-03T15:20:31.040Z,99100.38
2023-06-03T15:22:58.188Z,99097.16
2023-06-03T15:25:24.990Z,99090.72
2023-06-03T15:27:52.248Z,99087.97
2023-06-03T15:30:20.129Z,99095.66
2023-06-03T15:32:48.294Z,99093.31
2023-06-03T15:35:15.156Z,99085.94
2023-06-03T15:37:42.289Z,99088.25
2023-06-03T15:40:09.572Z,99084.84
2023-06-03T15:42:36.926Z,99079.91
2023-06-03T15:45:05.027Z,99082.47
2023-06-03T15:47:32.203Z,99075.97
2023-06-03T15:49:59.019Z,99074.25
2023-06-03T15:52:26.127Z,99073.63
2023-06-03T15:54:52.907Z,99069.19
2023-06-03T15:57:20.054Z,99069.59
2023-06-03T15:59:46.889Z,99074.03
2023-06-03T16:02:14.252Z,99059.59
2023-06-03T16:04:41.682Z,99065.97
2023-06-03T16:07:08.867Z,99063.19
2023-06-03T16:09:35.928Z,99063.22
2023-06-03T16:12:03.204Z,99062.16
2023-06-03T16:14:30.058Z,99056.84
2023-06-03T16:16:57.338Z,99054.09
2023-06-03T16:19:24.229Z,99060.22
2023-06-03T16:21:51.551Z,99062.59
2023-06-03T16:24:18.483Z,99066.19
2023-06-03T16:26:45.786Z,99057.28
2023-06-03T16:29:12.684Z,99058.59
2023-06-03T16:31:40.574Z,99058.16
2023-06-03T16:34:08.955Z,99054.53
2023-06-03T16:36:37.427Z,99060.72
2023-06-03T16:39:04.404Z,99065.59
2023-06-03T16:41:31.556Z,99063.69
2023-06-03T16:43:58.815Z,99064.09
2023-06-03T16:46:29.565Z,99061.97
2023-06-03T16:48:56.845Z,99062.81
2023-06-03T16:51:23.953Z,99064.53
2023-06-03T16:53:50.901Z,99064.31
2023-06-03T16:56:18.315Z,99066.66
2023-06-03T16:58:45.670Z,99057.50
2023-06-03T17:01:13.272Z,99063.88
2023-06-03T17:03:43.266Z,99060.88
2023-06-03T17:06:10.453Z,99052.41
2023-06-03T17:08:37.274Z,99053.63
2023-06-03T17:11:04.673Z,99048.31
2023-06-03T17:13:31.617Z,99058.31
2023-06-03T17:15:58.843Z,99053.53
2023-06-03T17:18:26.662Z,99048.44
2023-06-03T17:20:53.806Z,99051.00
2023-06-03T17:23:21.252Z,99045.22
2023-06-03T17:25:48.744Z,99049.00
2023-06-03T17:28:16.103Z,99056.44
2023-06-03T17:30:43.280Z,99055.97
2023-06-03T17:33:10.142Z,99058.06
2023-06-03T17:35:37.369Z,99055.94
2023-06-03T17:38:04.196Z,99052.94
2023-06-03T17:40:31.403Z,99058.22
2023-06-03T17:42:58.258Z,99056.75
2023-06-03T17:45:26.351Z,99061.09
2023-06-03T17:47:53.686Z,99059.41
2023-06-03T17:50:21.073Z,99065.06
2023-06-03T17:52:51.031Z,99063.16
2023-06-03T17:55:18.429Z,99066.31
2023-06-03T17:57:49.132Z,99068.81
2023-06-03T18:00:17.727Z,99065.44
2023-06-03T18:02:44.926Z,99070.69
2023-06-03T18:05:12.993Z,99070.44
2023-06-03T18:07:40.109Z,99074.16
2023-06-03T18:10:07.792Z,99076.66
2023-06-03T18:12:34.693Z,99068.44
2023-06-03T18:15:01.815Z,99074.19
2023-06-03T18:17:28.875Z,99074.84
2023-06-03T18:19:56.800Z,99072.38
2023-06-03T18:22:24.495Z,99073.25
2023-06-03T18:24:51.585Z,99078.88
2023-06-03T18:27:18.924Z,99079.47
2023-06-03T18:29:46.033Z,99085.56
2023-06-03T18:32:13.023Z,99082.94
2023-06-03T18:34:44.242Z,99081.84
2023-06-03T18:37:13.263Z,99079.84
2023-06-03T18:39:40.553Z,99085.97
2023-06-03T18:42:08.008Z,99080.59
2023-06-03T18:44:35.645Z,99082.81
2023-06-03T18:47:04.650Z,99085.31
2023-06-03T18:49:31.865Z,99086.34
2023-06-03T18:51:58.822Z,99086.94
2023-06-03T18:54:26.161Z,99092.31
2023-06-03T18:56:52.961Z,99091.84
2023-06-03T18:59:20.095Z,99095.00
2023-06-03T19:01:47.545Z,99101.56
2023-06-03T19:04:15.904Z,99105.91
2023-06-03T19:06:43.627Z,99093.34
2023-06-03T19:09:12.885Z,99093.06
2023-06-03T19:11:40.410Z,99106.72
2023-06-03T19:14:13.658Z,99105.38
2023-06-03T19:16:44.677Z,99118.66
2023-06-03T19:19:12.271Z,99114.78
2023-06-03T19:21:39.531Z,99121.03
2023-06-03T19:24:07.200Z,99116.47
2023-06-03T19:26:34.293Z,99116.00
2023-06-03T19:29:01.720Z,99121.38
2023-06-03T19:31:29.522Z,99126.56
2023-06-03T19:33:58.426Z,99144.88
2023-06-03T19:36:26.210Z,99138.41
2023-06-03T19:38:53.374Z,99144.84
2023-06-03T19:41:20.214Z,99149.56
2023-06-03T19:43:47.340Z,99154.38
2023-06-03T19:46:14.447Z,99152.00
2023-06-03T19:48:41.937Z,99146.41
2023-06-03T19:51:08.840Z,99158.09
2023-06-03T19:53:36.183Z,99159.72
2023-06-03T19:56:03.312Z,99164.03
2023-06-03T19:58:30.610Z,99162.84
2023-06-03T20:00:57.476Z,99174.72
2023-06-03T20:03:27.600Z,99172.25
2023-06-03T20:05:54.568Z,99174.47
2023-06-03T20:08:21.983Z,99167.34
2023-06-03T20:10:48.853Z,99166.72
2023-06-03T20:13:25.715Z,99176.81
2023-06-03T20:16:00.490Z,99168.44
2023-06-03T20:18:27.814Z,99165.94
2023-06-03T20:20:54.643Z,99170.06
2023-06-03T20:23:21.785Z,99168.56
2023-06-03T20:25:49.151Z,99168.72
2023-06-03T20:28:16.581Z,99159.81
2023-06-03T20:30:43.520Z,99171.31
2023-06-03T20:33:10.745Z,99170.81
2023-06-03T20:35:37.638Z,99166.72
2023-06-03T20:38:04.760Z,99178.41
2023-06-03T20:40:31.553Z,99173.63
2023-06-03T20:42:58.668Z,99173.81
2023-06-03T20:45:25.499Z,99170.56
2023-06-03T20:47:55.001Z,99170.41
2023-06-03T20:50:23.373Z,99164.59
2023-06-03T20:52:50.522Z,99161.53
2023-06-03T20:55:17.371Z,99170.44
2023-06-03T20:57:44.497Z,99171.13
2023-06-03T21:00:11.836Z,99174.56
2023-06-03T21:02:39.186Z,99171.31
2023-06-03T21:05:06.457Z,99172.81
2023-06-03T21:07:33.534Z,99182.25
2023-06-03T21:10:00.406Z,99171.47
2023-06-03T21:12:27.462Z,99167.19
2023-06-03T21:14:54.878Z,99165.81
2023-06-03T21:17:22.076Z,99170.25
2023-06-03T21:19:48.906Z,99168.03
2023-06-03T21:22:18.960Z,99172.13
2023-06-03T21:24:46.395Z,99169.06
2023-06-03T21:27:14.056Z,99170.91
2023-06-03T21:29:40.928Z,99172.47
2023-06-03T21:32:08.151Z,99172.28
2023-06-03T21:34:35.193Z,99166.28
2023-06-03T21:37:02.706Z,99167.91
2023-06-03T21:39:29.602Z,99166.75
2023-06-03T21:41:57.747Z,99165.00
2023-06-03T21:44:24.762Z,99166.56
2023-06-03T21:46:51.941Z,99169.13
2023-06-03T21:49:18.831Z,99162.59
2023-06-03T21:51:46.115Z,99166.50
2023-06-03T21:54:12.925Z,99162.22
2023-06-03T21:56:40.050Z,99163.22
2023-06-03T21:59:09.283Z,99165.44
2023-06-03T22:01:36.594Z,99157.75
2023-06-03T22:04:03.667Z,99167.13
2023-06-03T22:06:31.187Z,99161.81
2023-06-03T22:08:58.002Z,99148.63
2023-06-03T22:11:25.199Z,99153.41
2023-06-03T22:13:51.988Z,99157.97
2023-06-03T22:16:19.262Z,99154.50
2023-06-03T22:18:46.399Z,99152.47
2023-06-03T22:21:13.623Z,99144.78
2023-06-03T22:23:40.672Z,99149.03
2023-06-03T22:26:07.861Z,99152.19
2023-06-03T22:28:34.647Z,99145.84
2023-06-03T22:31:01.833Z,99146.53
2023-06-03T22:33:28.739Z,99144.28
2023-06-03T22:35:56.445Z,99143.75
2023-06-03T22:38:23.834Z,99137.91
2023-06-03T22:40:51.741Z,99141.34
2023-06-03T22:43:19.268Z,99139.59
2023-06-03T22:45:46.642Z,99141.59
2023-06-03T22:48:14.075Z,99143.72
2023-06-03T22:50:41.310Z,99141.53
2023-06-03T22:53:08.098Z,99137.28
2023-06-03T22:55:35.203Z,99141.47
2023-06-03T22:58:02.185Z,99139.56
2023-06-03T23:00:29.340Z,99135.94
2023-06-03T23:02:56.497Z,99135.09
2023-06-03T23:05:24.215Z,99139.03
2023-06-03T23:07:51.527Z,99131.47
2023-06-03T23:10:18.725Z,99136.53
2023-06-03T23:12:46.045Z,99141.16
2023-06-03T23:15:13.312Z,99138.25
2023-06-03T23:17:40.485Z,99138.03
2023-06-03T23:20:28.421Z,99138.66
2023-06-03T23:22:55.328Z,99133.34
2023-06-03T23:25:22.486Z,99138.22
2023-06-03T23:27:49.532Z,99134.31
2023-06-03T23:30:16.820Z,99139.09
2023-06-03T23:32:44.280Z,99140.34
2023-06-03T23:35:11.787Z,99141.03
2023-06-03T23:37:40.989Z,99134.91
2023-06-03T23:40:09.442Z,99126.31
2023-06-03T23:42:36.257Z,99122.50
2023-06-03T23:45:04.423Z,99122.63
2023-06-03T23:47:31.287Z,99116.94
2023-06-03T23:50:00.335Z,99115.25
2023-06-03T23:52:27.142Z,99113.28
2023-06-03T23:54:55.607Z,99111.44
2023-06-03T23:57:22.533Z,99108.78
2023-06-03T23:59:49.629Z,99107.91
